createdAt,value
2018-06-01T01:42:04.534Z,-78.00
2018-06-01T01:43:04.661Z,-78.00
2018-06-01T01:44:04.523Z,-78.00
2018-06-01T01:45:04.551Z,-78.00
2018-06-01T01:46:04.518Z,-82.00
2018-06-01T01:47:06.298Z,-78.00
2018-06-01T01:48:53.488Z,-78.00
2018-06-01T01:49:53.367Z,-78.00
2018-06-01T01:50:53.360Z,-78.00
2018-06-01T01:51:53.399Z,-78.00
2018-06-01T01:52:53.558Z,-78.00
2018-06-01T01:53:53.422Z,-78.00
2018-06-01T01:54:53.464Z,-78.00
2018-06-01T01:55:53.431Z,-78.00
2018-06-01T01:56:53.466Z,-81.00
2018-06-01T01:57:53.470Z,-78.00
2018-06-01T01:58:53.481Z,-81.00
2018-06-01T01:59:53.521Z,-78.00
2018-06-01T02:01:48.356Z,-82.00
2018-06-01T02:02:47.860Z,-81.00
2018-06-01T02:03:50.144Z,-81.00
2018-06-01T02:04:48.747Z,-81.00
2018-06-01T02:05:58.620Z,-82.00
2018-06-01T02:11:30.366Z,-81.00
2018-06-01T02:12:27.655Z,-81.00
2018-06-01T02:13:27.887Z,-81.00
2018-06-01T02:14:27.646Z,-81.00
2018-06-01T02:15:32.293Z,-81.00
2018-06-01T02:16:27.731Z,-81.00
2018-06-01T02:23:38.082Z,-81.00
2018-06-01T02:24:36.293Z,-81.00
2018-06-01T02:25:36.215Z,-81.00
2018-06-01T02:26:36.169Z,-81.00
2018-06-01T02:27:42.563Z,-81.00
2018-06-01T02:28:36.153Z,-81.00
2018-06-01T02:32:28.090Z,-81.00
2018-06-01T02:33:28.174Z,-81.00
2018-06-01T02:34:28.425Z,-81.00
2018-06-01T02:35:32.789Z,-81.00
2018-06-01T02:48:03.121Z,-81.00
2018-06-01T02:49:00.766Z,-81.00
2018-06-01T02:50:00.970Z,-81.00
2018-06-01T02:51:01.155Z,-81.00
2018-06-01T02:52:00.819Z,-81.00
2018-06-01T03:11:21.886Z,-81.00
2018-06-01T03:12:20.664Z,-81.00
2018-06-01T03:13:21.757Z,-81.00
2018-06-01T03:14:20.789Z,-81.00
2018-06-01T03:15:20.756Z,-81.00
2018-06-01T03:16:20.708Z,-81.00
2018-06-01T03:20:17.724Z,-81.00
2018-06-01T03:21:17.127Z,-81.00
2018-06-01T03:22:17.102Z,-81.00
2018-06-01T03:23:21.836Z,-81.00
2018-06-01T03:24:17.068Z,-81.00
2018-06-01T03:25:05.989Z,-81.00
2018-06-01T03:26:03.953Z,-81.00
2018-06-01T03:27:04.023Z,-81.00
2018-06-01T03:28:03.994Z,-81.00
2018-06-01T03:29:05.316Z,-81.00
2018-06-01T03:30:03.992Z,-81.00
2018-06-01T03:31:04.006Z,-81.00
2018-06-01T03:32:04.003Z,-81.00
2018-06-01T03:33:04.053Z,-81.00
2018-06-01T03:40:41.156Z,-77.00
2018-06-01T03:41:40.969Z,-78.00
2018-06-01T03:42:41.053Z,-78.00
2018-06-01T03:43:41.014Z,-78.00
2018-06-01T03:44:41.054Z,-78.00
2018-06-01T03:45:41.039Z,-78.00
2018-06-01T03:46:41.065Z,-78.00
2018-06-01T03:47:41.069Z,-78.00
2018-06-01T03:48:41.088Z,-78.00
2018-06-01T03:49:41.085Z,-78.00
2018-06-01T03:51:28.470Z,-78.00
2018-06-01T03:52:28.661Z,-78.00
2018-06-01T03:53:28.521Z,-78.00
2018-06-01T03:54:28.541Z,-78.00
2018-06-01T03:55:28.502Z,-78.00
2018-06-01T03:56:28.541Z,-78.00
2018-06-01T03:57:28.544Z,-78.00
2018-06-01T03:58:28.549Z,-78.00
2018-06-01T03:59:28.561Z,-78.00
2018-06-01T04:00:28.663Z,-78.00
2018-06-01T04:01:28.569Z,-78.00
2018-06-01T04:02:28.671Z,-78.00
2018-06-01T04:03:28.609Z,-78.00
2018-06-01T04:05:16.083Z,-78.00
2018-06-01T04:06:16.101Z,-78.00
2018-06-01T04:07:16.086Z,-78.00
2018-06-01T04:08:16.133Z,-78.00
2018-06-01T04:09:16.100Z,-78.00
2018-06-01T04:10:16.198Z,-78.00
2018-06-01T04:11:16.122Z,-78.00
2018-06-01T04:12:16.154Z,-78.00
2018-06-01T04:14:03.424Z,-78.00
2018-06-01T04:15:03.309Z,-78.00
2018-06-01T04:16:03.324Z,-78.00
2018-06-01T04:17:03.387Z,-78.00
2018-06-01T04:18:03.340Z,-78.00
2018-06-01T04:19:04.468Z,-78.00
2018-06-01T04:20:03.427Z,-78.00
2018-06-01T04:20:50.412Z,-78.00
2018-06-01T04:21:50.254Z,-78.00
2018-06-01T04:22:50.322Z,-77.00
2018-06-01T04:23:50.277Z,-78.00
2018-06-01T04:24:50.319Z,-77.00
2018-06-01T04:25:50.330Z,-78.00
2018-06-01T04:26:50.343Z,-78.00
2018-06-01T04:27:50.381Z,-78.00
2018-06-01T04:28:50.459Z,-78.00
2018-06-01T04:29:50.371Z,-78.00
2018-06-01T04:31:39.682Z,-78.00
2018-06-01T04:32:39.745Z,-78.00
2018-06-01T04:33:39.683Z,-78.00
2018-06-01T04:34:40.802Z,-78.00
2018-06-01T04:35:39.709Z,-77.00
2018-06-01T04:36:46.644Z,-78.00
2018-06-01T04:37:39.748Z,-77.00
2018-06-01T04:38:39.795Z,-78.00
2018-06-01T04:39:39.769Z,-78.00
2018-06-01T04:41:27.150Z,-77.00
2018-06-01T04:42:27.222Z,-78.00
2018-06-01T04:43:27.143Z,-78.00
2018-06-01T04:44:27.212Z,-78.00
2018-06-01T04:45:27.170Z,-78.00
2018-06-01T04:46:28.258Z,-78.00
2018-06-01T04:47:27.251Z,-78.00
2018-06-01T04:48:29.348Z,-78.00
2018-06-01T04:50:14.497Z,-77.00
2018-06-01T04:51:14.393Z,-78.00
2018-06-01T04:52:14.467Z,-78.00
2018-06-01T04:53:14.426Z,-78.00
2018-06-01T04:54:14.500Z,-78.00
2018-06-01T04:55:14.514Z,-78.00
2018-06-01T04:56:20.329Z,-78.00
2018-06-01T04:57:14.494Z,-78.00
2018-06-01T04:59:43.672Z,-78.00
2018-06-01T05:00:43.552Z,-78.00
2018-06-01T05:01:43.654Z,-78.00
2018-06-01T05:02:43.589Z,-78.00
2018-06-01T05:03:44.708Z,-78.00
2018-06-01T05:04:43.645Z,-78.00
2018-06-01T05:05:43.634Z,-78.00
2018-06-01T05:06:43.658Z,-78.00
2018-06-01T05:07:43.788Z,-78.00
2018-06-01T05:08:43.699Z,-78.00
2018-06-01T05:09:43.762Z,-78.00
2018-06-01T05:10:43.681Z,-78.00
2018-06-01T05:11:43.781Z,-78.00
2018-06-01T05:12:43.726Z,-78.00
2018-06-01T05:13:44.822Z,-78.00
2018-06-01T05:14:59.176Z,-78.00
2018-06-01T05:15:59.024Z,-78.00
2018-06-01T05:17:00.100Z,-78.00
2018-06-01T05:17:59.045Z,-78.00
2018-06-01T05:19:00.096Z,-78.00
2018-06-01T05:19:59.076Z,-78.00
2018-06-01T05:20:59.124Z,-78.00
2018-06-01T05:21:59.088Z,-78.00
2018-06-01T05:22:59.147Z,-78.00
2018-06-01T05:23:59.099Z,-78.00
2018-06-01T05:24:59.217Z,-78.00
2018-06-01T05:25:59.153Z,-78.00
2018-06-01T05:27:47.459Z,-79.00
2018-06-01T05:28:49.433Z,-79.00
2018-06-01T05:29:47.339Z,-79.00
2018-06-01T05:30:52.129Z,-79.00
2018-06-01T05:31:47.345Z,-79.00
2018-06-01T05:32:51.997Z,-79.00
2018-06-01T05:33:47.403Z,-79.00
2018-06-01T05:34:47.416Z,-79.00
2018-06-01T05:36:34.837Z,-78.00
2018-06-01T05:37:34.574Z,-78.00
2018-06-01T05:38:34.728Z,-78.00
2018-06-01T05:39:34.635Z,-78.00
2018-06-01T05:40:34.628Z,-78.00
2018-06-01T05:41:34.646Z,-79.00
2018-06-01T05:42:34.659Z,-79.00
2018-06-01T05:43:34.657Z,-79.00
2018-06-01T05:44:34.815Z,-78.00
2018-06-01T05:45:34.774Z,-78.00
2018-06-01T05:46:34.739Z,-78.00
2018-06-01T05:47:34.791Z,-78.00
2018-06-01T05:48:34.714Z,-78.00
2018-06-01T05:49:34.804Z,-78.00
2018-06-01T05:51:22.177Z,-79.00
2018-06-01T05:52:22.073Z,-79.00
2018-06-01T05:53:22.100Z,-79.00
2018-06-01T05:54:22.181Z,-78.00
2018-06-01T05:55:22.187Z,-78.00
2018-06-01T05:56:22.148Z,-78.00
2018-06-01T05:57:22.131Z,-78.00
2018-06-01T05:58:22.165Z,-78.00
2018-06-01T05:59:22.156Z,-79.00
2018-06-01T06:00:22.293Z,-78.00
2018-06-01T06:01:22.183Z,-79.00
2018-06-01T06:02:22.295Z,-78.00
2018-06-01T06:03:22.227Z,-77.00
2018-06-01T06:04:22.302Z,-78.00
2018-06-01T06:05:22.252Z,-78.00
2018-06-01T06:06:22.314Z,-78.00
2018-06-01T06:07:22.285Z,-77.00
2018-06-01T06:08:22.328Z,-78.00
2018-06-01T06:09:22.299Z,-77.00
2018-06-01T06:11:10.148Z,-78.00
2018-06-01T06:12:11.194Z,-77.00
2018-06-01T06:13:10.142Z,-77.00
2018-06-01T06:14:10.194Z,-78.00
2018-06-01T06:15:10.162Z,-78.00
2018-06-01T06:16:10.244Z,-77.00
2018-06-01T06:17:10.184Z,-78.00
2018-06-01T06:18:10.203Z,-78.00
2018-06-01T06:19:10.202Z,-77.00
2018-06-01T06:20:10.339Z,-77.00
2018-06-01T06:21:57.838Z,-78.00
2018-06-01T06:22:57.790Z,-77.00
2018-06-01T06:23:57.825Z,-78.00
2018-06-01T06:24:57.886Z,-78.00
2018-06-01T06:25:57.832Z,-78.00
2018-06-01T06:26:57.881Z,-78.00
2018-06-01T06:27:57.859Z,-78.00
2018-06-01T06:28:57.930Z,-78.00
2018-06-01T06:29:57.890Z,-78.00
2018-06-01T06:30:58.006Z,-77.00
2018-06-01T06:31:57.924Z,-78.00
2018-06-01T06:32:58.018Z,-77.00
2018-06-01T06:34:49.603Z,-77.00
2018-06-01T06:35:49.638Z,-77.00
2018-06-01T06:36:49.623Z,-77.00
2018-06-01T06:37:49.651Z,-78.00
2018-06-01T06:38:49.621Z,-77.00
2018-06-01T06:39:49.766Z,-77.00
2018-06-01T06:40:49.655Z,-78.00
2018-06-01T06:41:49.881Z,-77.00
2018-06-01T06:42:49.695Z,-78.00
2018-06-01T06:43:49.687Z,-77.00
2018-06-01T06:44:49.698Z,-77.00
2018-06-01T06:45:49.705Z,-77.00
2018-06-01T06:46:49.737Z,-77.00
2018-06-01T06:47:50.038Z,-77.00
2018-06-01T06:48:49.826Z,-77.00
2018-06-01T06:49:49.774Z,-78.00
2018-06-01T06:50:49.775Z,-78.00
2018-06-01T06:51:49.818Z,-77.00
2018-06-01T06:52:49.815Z,-77.00
2018-06-01T06:53:49.834Z,-78.00
2018-06-01T06:54:49.852Z,-77.00
2018-06-01T06:55:49.848Z,-78.00
2018-06-01T06:56:49.877Z,-77.00
2018-06-01T06:57:49.879Z,-77.00
2018-06-01T06:58:49.899Z,-77.00
2018-06-01T06:59:49.906Z,-77.00
2018-06-01T07:00:49.940Z,-77.00
2018-06-01T07:01:49.955Z,-77.00
2018-06-01T07:02:49.948Z,-77.00
2018-06-01T07:03:49.972Z,-78.00
2018-06-01T07:04:50.050Z,-78.00
2018-06-01T07:05:50.034Z,-77.00
2018-06-01T07:06:37.446Z,-77.00
2018-06-01T07:07:37.323Z,-77.00
2018-06-01T07:08:37.375Z,-77.00
2018-06-01T07:09:37.347Z,-77.00
2018-06-01T07:10:37.377Z,-77.00
2018-06-01T07:11:37.405Z,-77.00
2018-06-01T07:12:37.428Z,-77.00
2018-06-01T07:13:37.393Z,-77.00
2018-06-01T07:14:37.400Z,-77.00
2018-06-01T07:15:37.422Z,-77.00
2018-06-01T07:16:37.473Z,-77.00
2018-06-01T07:17:37.539Z,-77.00
2018-06-01T07:18:37.472Z,-77.00
2018-06-01T07:19:37.488Z,-77.00
2018-06-01T07:20:37.503Z,-77.00
2018-06-01T07:22:24.334Z,-76.00
2018-06-01T07:23:24.387Z,-76.00
2018-06-01T07:24:24.308Z,-76.00
2018-06-01T07:25:24.370Z,-77.00
2018-06-01T07:26:24.335Z,-77.00
2018-06-01T07:27:24.439Z,-76.00
2018-06-01T07:28:24.369Z,-76.00
2018-06-01T07:29:24.434Z,-77.00
2018-06-01T07:30:24.392Z,-77.00
2018-06-01T07:31:25.501Z,-77.00
2018-06-01T07:32:24.412Z,-77.00
2018-06-01T07:33:25.522Z,-76.00
2018-06-01T07:34:24.460Z,-76.00
2018-06-01T07:35:24.580Z,-77.00
2018-06-01T07:36:24.506Z,-78.00
2018-06-01T07:37:24.568Z,-76.00
2018-06-01T07:38:24.524Z,-76.00
2018-06-01T07:39:24.511Z,-76.00
2018-06-01T07:40:24.530Z,-76.00
2018-06-01T07:41:24.537Z,-76.00
2018-06-01T07:42:24.594Z,-76.00
2018-06-01T07:43:24.590Z,-76.00
2018-06-01T07:45:21.433Z,-76.00
2018-06-01T07:46:21.443Z,-76.00
2018-06-01T07:47:21.470Z,-77.00
2018-06-01T07:48:21.429Z,-77.00
2018-06-01T07:49:21.474Z,-76.00
2018-06-01T07:50:21.457Z,-76.00
2018-06-01T07:51:21.492Z,-77.00
2018-06-01T07:52:21.470Z,-76.00
2018-06-01T07:53:21.509Z,-77.00
2018-06-01T07:54:21.621Z,-77.00
2018-06-01T07:55:21.543Z,-76.00
2018-06-01T07:56:21.546Z,-77.00
2018-06-01T07:57:21.563Z,-77.00
2018-06-01T07:58:21.557Z,-77.00
2018-06-01T07:59:21.588Z,-75.00
2018-06-01T08:00:21.592Z,-75.00
2018-06-01T08:01:21.606Z,-76.00
2018-06-01T08:03:14.076Z,-76.00
2018-06-01T08:04:14.153Z,-77.00
2018-06-01T08:05:14.085Z,-75.00
2018-06-01T08:06:14.139Z,-77.00
2018-06-01T08:07:14.106Z,-76.00
2018-06-01T08:08:14.091Z,-77.00
2018-06-01T08:09:14.214Z,-76.00
2018-06-01T08:11:01.011Z,-77.00
2018-06-01T08:12:01.066Z,-77.00
2018-06-01T08:13:01.001Z,-77.00
2018-06-01T08:14:01.074Z,-76.00
2018-06-01T08:15:01.049Z,-76.00
2018-06-01T08:16:01.103Z,-76.00
2018-06-01T08:17:01.052Z,-77.00
2018-06-01T08:18:25.911Z,-78.00
2018-06-01T08:19:01.093Z,-78.00
2018-06-01T08:20:01.112Z,-78.00
2018-06-01T08:21:01.246Z,-80.00
2018-06-01T08:22:47.895Z,-80.00
2018-06-01T08:23:47.876Z,-80.00
2018-06-01T08:24:47.978Z,-81.00
2018-06-01T08:25:48.005Z,-80.00
2018-06-01T08:26:47.951Z,-80.00
2018-06-01T08:27:47.916Z,-80.00
2018-06-01T08:29:34.832Z,-80.00
2018-06-01T08:30:34.830Z,-81.00
2018-06-01T08:31:34.909Z,-79.00
2018-06-01T08:32:34.896Z,-80.00
2018-06-01T08:33:34.850Z,-80.00
2018-06-01T08:34:35.100Z,-80.00
2018-06-01T08:35:34.877Z,-80.00
2018-06-01T08:36:34.892Z,-80.00
2018-06-01T08:37:34.899Z,-80.00
2018-06-01T08:38:34.935Z,-81.00
2018-06-01T08:40:21.768Z,-80.00
2018-06-01T08:41:21.736Z,-81.00
2018-06-01T08:42:21.712Z,-80.00
2018-06-01T08:43:21.759Z,-80.00
2018-06-01T08:44:21.988Z,-80.00
2018-06-01T08:45:21.721Z,-80.00
2018-06-01T08:46:21.782Z,-80.00
2018-06-01T08:47:21.746Z,-79.00
2018-06-01T08:48:21.780Z,-80.00
2018-06-01T08:53:55.801Z,-82.00
2018-06-01T08:54:55.743Z,-81.00
2018-06-01T08:55:56.175Z,-81.00
2018-06-01T08:56:56.574Z,-81.00
2018-06-01T08:57:55.683Z,-82.00
2018-06-01T08:58:55.610Z,-81.00
2018-06-01T08:59:55.428Z,-81.00
2018-06-01T09:02:00.692Z,-81.00
2018-06-01T09:03:00.237Z,-81.00
2018-06-01T09:04:00.347Z,-82.00
2018-06-01T09:05:02.740Z,-81.00
2018-06-01T09:06:00.127Z,-81.00
2018-06-01T09:07:01.252Z,-80.00
2018-06-01T09:08:47.257Z,-81.00
2018-06-01T09:09:47.196Z,-81.00
2018-06-01T09:10:47.160Z,-81.00
2018-06-01T09:11:47.199Z,-81.00
2018-06-01T09:12:47.161Z,-81.00
2018-06-01T09:13:47.151Z,-81.00
2018-06-01T09:14:47.220Z,-81.00
2018-06-01T09:15:47.210Z,-80.00
2018-06-01T09:16:47.278Z,-81.00
2018-06-01T09:18:38.653Z,-80.00
2018-06-01T09:19:34.321Z,-82.00
2018-06-01T09:21:29.576Z,-80.00
2018-06-01T09:22:29.490Z,-83.00
2018-06-01T09:23:29.571Z,-82.00
2018-06-01T09:24:29.576Z,-81.00
2018-06-01T09:25:29.686Z,-81.00
2018-06-01T09:26:29.575Z,-81.00
2018-06-01T09:28:23.104Z,-82.00
2018-06-01T09:29:21.492Z,-81.00
2018-06-01T09:31:17.830Z,-82.00
2018-06-01T09:32:16.925Z,-83.00
2018-06-01T09:33:16.857Z,-83.00
2018-06-01T09:34:18.239Z,-82.00
2018-06-01T09:35:16.782Z,-82.00
2018-06-01T09:37:05.578Z,-82.00
2018-06-01T09:38:03.826Z,-82.00
2018-06-01T09:39:04.115Z,-81.00
2018-06-01T09:40:03.755Z,-82.00
2018-06-01T09:41:03.711Z,-80.00
2018-06-01T09:42:52.068Z,-82.00
2018-06-01T09:43:52.848Z,-82.00
2018-06-01T09:45:49.410Z,-82.00
2018-06-01T09:46:46.543Z,-82.00
2018-06-01T09:47:47.192Z,-83.00
2018-06-01T09:48:46.359Z,-83.00
2018-06-01T09:50:38.305Z,-82.00
2018-06-01T09:51:39.267Z,-83.00
2018-06-01T09:52:38.199Z,-83.00
2018-06-01T09:53:59.293Z,-82.00
2018-06-01T09:54:38.151Z,-83.00
2018-06-01T09:55:40.210Z,-83.00
2018-06-01T09:56:38.124Z,-83.00
2018-06-01T09:57:38.194Z,-83.00
2018-06-01T09:58:38.180Z,-82.00
2018-06-01T10:04:45.409Z,-83.00
2018-06-01T10:05:42.974Z,-84.00
2018-06-01T10:07:50.524Z,-84.00
2018-06-01T10:08:43.122Z,-84.00
2018-06-01T10:09:42.862Z,-84.00
2018-06-01T10:12:19.969Z,-84.00
2018-06-01T10:13:19.995Z,-84.00
2018-06-01T10:18:05.598Z,-84.00
2018-06-01T10:19:08.682Z,-84.00
2018-06-01T10:20:04.971Z,-84.00
2018-06-01T10:21:09.729Z,-84.00
2018-06-01T10:22:01.559Z,-83.00
2018-06-01T10:23:00.353Z,-84.00
2018-06-01T10:23:56.885Z,-84.00
2018-06-01T10:25:07.682Z,-84.00
2018-06-01T10:26:50.417Z,-83.00
2018-06-01T10:27:52.053Z,-84.00
2018-06-01T10:28:50.621Z,-83.00
2018-06-01T10:29:51.644Z,-83.00
2018-06-01T10:30:50.279Z,-83.00
2018-06-01T10:32:39.449Z,-83.00
2018-06-01T10:33:41.529Z,-83.00
2018-06-01T10:34:39.250Z,-83.00
2018-06-01T10:35:39.268Z,-83.00
2018-06-01T10:37:29.428Z,-82.00
2018-06-01T10:38:29.281Z,-83.00
2018-06-01T10:39:29.180Z,-82.00
2018-06-01T10:40:29.214Z,-83.00
2018-06-01T10:41:29.431Z,-82.00
2018-06-01T10:42:30.235Z,-82.00
2018-06-01T10:43:29.216Z,-83.00
2018-06-01T10:52:01.030Z,-80.00
2018-06-01T10:53:00.277Z,-80.00
2018-06-01T10:53:59.108Z,-80.00
2018-06-01T10:54:59.056Z,-80.00
2018-06-01T10:56:02.528Z,-79.00
2018-06-01T10:57:49.312Z,-81.00
2018-06-01T10:58:46.053Z,-80.00
2018-06-01T10:59:45.959Z,-82.00
2018-06-01T11:00:48.019Z,-80.00
2018-06-01T11:01:45.964Z,-81.00
2018-06-01T11:02:57.730Z,-80.00
2018-06-01T11:03:45.929Z,-80.00
2018-06-01T11:04:48.181Z,-80.00
2018-06-01T11:07:54.542Z,-80.00
2018-06-01T11:08:54.436Z,-80.00
2018-06-01T11:09:54.421Z,-80.00
2018-06-01T11:10:54.416Z,-80.00
2018-06-01T11:11:54.375Z,-80.00
2018-06-01T11:12:54.440Z,-81.00
2018-06-01T11:13:54.487Z,-80.00
2018-06-01T11:14:54.580Z,-81.00
2018-06-01T11:15:54.432Z,-81.00
2018-06-01T11:16:54.554Z,-80.00
2018-06-01T11:17:54.462Z,-81.00
2018-06-01T11:18:59.498Z,-80.00
2018-06-01T11:19:54.488Z,-80.00
2018-06-01T11:21:41.978Z,-81.00
2018-06-01T11:22:42.034Z,-81.00
2018-06-01T11:23:42.256Z,-80.00
2018-06-01T11:24:42.056Z,-79.00
2018-06-01T11:25:41.961Z,-80.00
2018-06-01T11:26:43.062Z,-79.00
2018-06-01T11:27:42.034Z,-79.00
2018-06-01T11:28:42.139Z,-79.00
2018-06-01T11:29:42.033Z,-80.00
2018-06-01T11:31:31.433Z,-81.00
2018-06-01T11:32:31.133Z,-80.00
2018-06-01T11:33:31.081Z,-80.00
2018-06-01T11:34:31.684Z,-79.00
2018-06-01T11:35:31.072Z,-80.00
2018-06-01T11:36:31.222Z,-79.00
2018-06-01T11:37:31.113Z,-80.00
2018-06-01T11:39:37.033Z,-79.00
2018-06-01T11:40:37.126Z,-80.00
2018-06-01T11:41:37.032Z,-80.00
2018-06-01T11:42:37.050Z,-79.00
2018-06-01T11:43:37.053Z,-80.00
2018-06-01T11:44:38.188Z,-80.00
2018-06-01T11:45:37.354Z,-80.00
2018-06-01T11:46:37.075Z,-80.00
2018-06-01T11:47:37.028Z,-80.00
2018-06-01T11:49:28.831Z,-80.00
2018-06-01T11:50:28.916Z,-80.00
2018-06-01T11:51:28.965Z,-80.00
2018-06-01T11:52:28.947Z,-80.00
2018-06-01T11:53:28.910Z,-80.00
2018-06-01T11:54:28.894Z,-80.00
2018-06-01T11:55:28.924Z,-79.00
2018-06-01T11:57:16.412Z,-81.00
2018-06-01T11:58:16.116Z,-81.00
2018-06-01T12:00:15.439Z,-81.00
2018-06-01T12:01:14.125Z,-81.00
2018-06-01T12:02:14.054Z,-81.00
2018-06-01T12:03:17.121Z,-81.00
2018-06-01T12:04:14.023Z,-81.00
2018-06-01T12:05:14.110Z,-81.00
2018-06-01T12:07:44.215Z,-80.00
2018-06-01T12:08:46.372Z,-82.00
2018-06-01T12:10:48.388Z,-81.00
2018-06-01T12:11:46.846Z,-81.00
2018-06-01T12:12:46.680Z,-81.00
2018-06-01T12:13:52.318Z,-82.00
2018-06-01T12:15:40.835Z,-81.00
2018-06-01T12:16:41.971Z,-81.00
2018-06-01T12:17:41.786Z,-82.00
2018-06-01T12:18:40.918Z,-81.00
2018-06-01T12:19:40.794Z,-81.00
2018-06-01T12:21:45.379Z,-81.00
2018-06-01T12:22:43.247Z,-81.00
2018-06-01T12:23:43.431Z,-81.00
2018-06-01T12:24:44.964Z,-81.00
2018-06-01T12:25:45.356Z,-80.00
2018-06-01T12:27:31.558Z,-80.00
2018-06-01T12:28:31.289Z,-81.00
2018-06-01T12:29:30.533Z,-81.00
2018-06-01T12:36:52.470Z,-81.00
2018-06-01T12:37:52.520Z,-80.00
2018-06-01T12:38:52.357Z,-80.00
2018-06-01T12:39:53.367Z,-81.00
2018-06-01T12:41:41.809Z,-81.00
2018-06-01T12:42:41.777Z,-81.00
2018-06-01T12:43:41.928Z,-80.00
2018-06-01T12:45:28.885Z,-80.00
2018-06-01T12:46:28.862Z,-80.00
2018-06-01T12:47:28.784Z,-80.00
2018-06-01T12:48:28.910Z,-80.00
2018-06-01T12:49:28.844Z,-80.00
2018-06-01T12:50:31.269Z,-80.00
2018-06-01T12:51:28.869Z,-81.00
2018-06-01T12:53:15.729Z,-81.00
2018-06-01T12:54:15.704Z,-81.00
2018-06-01T12:55:15.703Z,-81.00
2018-06-01T12:56:15.735Z,-81.00
2018-06-01T12:57:15.788Z,-80.00
2018-06-01T12:58:15.732Z,-80.00
2018-06-01T12:59:15.728Z,-80.00
2018-06-01T13:00:15.730Z,-82.00
2018-06-01T13:02:09.945Z,-80.00
2018-06-01T13:03:09.924Z,-80.00
2018-06-01T13:05:38.743Z,-80.00
2018-06-01T13:06:38.769Z,-80.00
2018-06-01T13:07:40.894Z,-80.00
2018-06-01T13:08:38.820Z,-80.00
2018-06-01T13:09:38.856Z,-80.00
2018-06-01T13:10:38.814Z,-80.00
2018-06-01T13:12:26.072Z,-80.00
2018-06-01T13:13:27.104Z,-80.00
2018-06-01T13:14:26.020Z,-80.00
2018-06-01T13:15:26.130Z,-79.00
2018-06-01T13:16:26.079Z,-80.00
2018-06-01T13:17:27.119Z,-80.00
2018-06-01T13:18:26.063Z,-80.00
2018-06-01T13:19:27.132Z,-80.00
2018-06-01T13:20:26.148Z,-79.00
2018-06-01T13:22:21.847Z,-79.00
2018-06-01T13:23:21.880Z,-79.00
2018-06-01T13:24:21.838Z,-79.00
2018-06-01T13:25:23.951Z,-79.00
2018-06-01T13:26:21.828Z,-79.00
2018-06-01T13:27:23.939Z,-80.00
2018-06-01T13:28:21.862Z,-80.00
2018-06-01T13:29:21.865Z,-80.00
2018-06-01T13:30:21.894Z,-80.00
2018-06-01T13:31:24.380Z,-80.00
2018-06-01T13:33:18.694Z,-80.00
2018-06-01T13:34:19.656Z,-80.00
2018-06-01T13:35:18.588Z,-79.00
2018-06-01T13:36:18.651Z,-80.00
2018-06-01T13:37:18.607Z,-81.00
2018-06-01T13:38:18.719Z,-79.00
2018-06-01T13:39:19.701Z,-79.00
2018-06-01T13:40:18.681Z,-80.00
2018-06-01T13:41:18.783Z,-80.00
2018-06-01T13:42:18.704Z,-80.00
2018-06-01T13:44:43.784Z,-80.00
2018-06-01T13:45:43.594Z,-80.00
2018-06-01T13:46:44.963Z,-80.00
2018-06-01T13:47:44.599Z,-81.00
2018-06-01T13:49:31.479Z,-80.00
2018-06-01T13:50:32.795Z,-80.00
2018-06-01T13:51:31.617Z,-80.00
2018-06-01T13:52:36.503Z,-81.00
2018-06-01T13:54:23.804Z,-81.00
2018-06-01T13:55:22.722Z,-80.00
2018-06-01T13:57:46.316Z,-80.00
2018-06-01T13:58:47.629Z,-80.00
2018-06-01T13:59:45.013Z,-80.00
2018-06-01T14:00:44.950Z,-81.00
2018-06-01T14:02:40.274Z,-80.00
2018-06-01T14:03:40.369Z,-80.00
2018-06-01T14:04:40.570Z,-80.00
2018-06-01T14:05:40.286Z,-80.00
2018-06-01T14:07:28.752Z,-80.00
2018-06-01T14:08:28.914Z,-80.00
2018-06-01T14:09:28.871Z,-80.00
2018-06-01T14:10:28.673Z,-80.00
2018-06-01T14:12:49.128Z,-80.00
2018-06-01T14:13:48.217Z,-81.00
2018-06-01T14:14:48.267Z,-81.00
2018-06-01T14:15:48.880Z,-81.00
2018-06-01T14:18:01.393Z,-81.00
2018-06-01T14:19:01.355Z,-81.00
2018-06-01T14:20:01.612Z,-80.00
2018-06-01T14:21:01.438Z,-81.00
2018-06-01T14:22:53.315Z,-80.00
2018-06-01T14:23:54.509Z,-80.00
2018-06-01T14:24:53.414Z,-80.00
2018-06-01T14:25:54.547Z,-81.00
2018-06-01T14:26:53.496Z,-80.00
2018-06-01T14:27:53.435Z,-80.00
2018-06-01T14:28:53.396Z,-81.00
2018-06-01T14:31:17.302Z,-81.00
2018-06-01T14:32:16.892Z,-81.00
2018-06-01T14:33:16.836Z,-80.00
2018-06-01T14:34:17.070Z,-81.00
2018-06-01T14:35:17.435Z,-80.00
2018-06-01T14:36:17.104Z,-80.00
2018-06-01T14:37:16.928Z,-81.00
2018-06-01T14:39:16.397Z,-80.00
2018-06-01T14:40:16.724Z,-80.00
2018-06-01T14:41:16.492Z,-81.00
2018-06-01T14:42:16.934Z,-79.00
2018-06-01T14:43:16.427Z,-80.00
2018-06-01T14:44:16.458Z,-79.00
2018-06-01T14:46:03.550Z,-80.00
2018-06-01T14:47:03.627Z,-80.00
2018-06-01T14:48:03.515Z,-79.00
2018-06-01T14:49:03.744Z,-81.00
2018-06-01T14:50:03.634Z,-80.00
2018-06-01T14:52:03.973Z,-79.00
2018-06-01T14:53:04.010Z,-79.00
2018-06-01T14:54:04.006Z,-79.00
2018-06-01T14:55:15.568Z,-79.00
2018-06-01T14:57:51.107Z,-79.00
2018-06-01T14:58:51.134Z,-79.00
2018-06-01T14:59:52.192Z,-79.00
2018-06-01T15:00:51.176Z,-79.00
2018-06-01T15:01:51.286Z,-80.00
2018-06-01T15:02:51.123Z,-80.00
2018-06-01T15:05:36.162Z,-79.00
2018-06-01T15:06:35.169Z,-79.00
2018-06-01T15:07:35.171Z,-79.00
2018-06-01T15:08:35.267Z,-79.00
2018-06-01T15:09:35.268Z,-79.00
2018-06-01T15:10:35.215Z,-79.00
2018-06-01T15:11:36.253Z,-80.00
2018-06-01T15:12:35.219Z,-80.00
2018-06-01T15:13:35.287Z,-80.00
2018-06-01T15:16:37.721Z,-79.00
2018-06-01T15:17:37.811Z,-77.00
2018-06-01T15:18:37.755Z,-80.00
2018-06-01T15:19:37.767Z,-79.00
2018-06-01T15:20:39.885Z,-79.00
2018-06-01T15:21:37.822Z,-79.00
2018-06-01T15:22:37.924Z,-78.00
2018-06-01T15:23:37.823Z,-79.00
2018-06-01T15:25:32.352Z,-79.00
2018-06-01T15:26:32.309Z,-79.00
2018-06-01T15:27:32.321Z,-79.00
2018-06-01T15:28:32.342Z,-79.00
2018-06-01T15:29:32.302Z,-79.00
2018-06-01T15:30:36.943Z,-80.00
2018-06-01T15:31:32.318Z,-80.00
2018-06-01T15:33:54.658Z,-79.00
2018-06-01T15:34:52.627Z,-79.00
2018-06-01T15:35:52.643Z,-79.00
2018-06-01T15:36:52.655Z,-80.00
2018-06-01T15:37:52.718Z,-79.00
2018-06-01T15:38:52.625Z,-79.00
2018-06-01T15:39:52.686Z,-79.00
2018-06-01T15:40:52.699Z,-79.00
2018-06-01T15:41:52.781Z,-79.00
2018-06-01T15:42:44.438Z,-79.00
2018-06-01T15:43:44.363Z,-79.00
2018-06-01T15:44:44.408Z,-78.00
2018-06-01T15:45:44.443Z,-79.00
2018-06-01T15:46:44.433Z,-79.00
2018-06-01T15:47:54.975Z,-80.00
2018-06-01T15:53:29.083Z,-79.00
2018-06-01T15:54:33.788Z,-79.00
2018-06-01T15:55:28.975Z,-79.00
2018-06-01T15:56:40.582Z,-79.00
2018-06-01T15:57:28.995Z,-80.00
2018-06-01T15:58:40.149Z,-79.00
2018-06-01T15:59:29.014Z,-79.00
2018-06-01T16:00:29.142Z,-79.00
2018-06-01T16:01:29.040Z,-79.00
2018-06-01T16:02:30.177Z,-79.00
2018-06-01T16:07:07.129Z,-80.00
2018-06-01T16:08:09.346Z,-79.00
2018-06-01T16:09:07.128Z,-79.00
2018-06-01T16:10:24.088Z,-79.00
2018-06-01T16:11:07.195Z,-79.00
2018-06-01T16:12:19.149Z,-79.00
2018-06-01T16:13:07.229Z,-79.00
2018-06-01T16:14:08.251Z,-80.00
2018-06-01T16:15:07.230Z,-79.00
2018-06-01T16:17:17.842Z,-79.00
2018-06-01T16:18:09.107Z,-79.00
2018-06-01T16:19:09.160Z,-79.00
2018-06-01T16:20:09.183Z,-79.00
2018-06-01T16:21:15.794Z,-79.00
2018-06-01T16:22:56.380Z,-79.00
2018-06-01T16:23:56.331Z,-79.00
2018-06-01T16:24:56.301Z,-79.00
2018-06-01T16:26:01.253Z,-79.00
2018-06-01T16:26:56.323Z,-79.00
2018-06-01T16:28:32.078Z,-79.00
2018-06-01T16:28:56.384Z,-79.00
2018-06-01T16:30:53.538Z,-80.00
2018-06-01T16:31:54.609Z,-79.00
2018-06-01T16:32:53.471Z,-80.00
2018-06-01T16:34:04.244Z,-79.00
2018-06-01T16:34:53.502Z,-77.00
2018-06-01T16:35:58.136Z,-77.00
2018-06-01T16:37:40.736Z,-77.00
2018-06-01T16:38:40.551Z,-77.00
2018-06-01T16:39:46.244Z,-78.00
2018-06-01T16:40:40.578Z,-77.00
2018-06-01T16:41:41.588Z,-77.00
2018-06-01T16:42:28.831Z,-77.00
2018-06-01T16:43:28.791Z,-76.00
2018-06-01T16:44:28.789Z,-77.00
2018-06-01T16:45:28.816Z,-76.00
2018-06-01T16:46:28.873Z,-76.00
2018-06-01T16:47:28.819Z,-77.00
2018-06-01T16:48:28.843Z,-77.00
2018-06-01T16:50:18.248Z,-79.00
2018-06-01T16:51:18.246Z,-79.00
2018-06-01T16:53:14.428Z,-79.00
2018-06-01T16:54:13.407Z,-79.00
2018-06-01T16:55:13.500Z,-79.00
2018-06-01T16:56:13.527Z,-78.00
2018-06-01T16:57:14.683Z,-79.00
2018-06-01T16:58:13.436Z,-79.00